Terminal Aerodrome Forecast
Issued by NWS St Louis, MO

Home | Current Version | Previous Version | Text Only | Print | Product List | Glossary On
Versions: 1 2 3 4 5 6 7 8 9 10 11 12 13 14 15 16 17 18 19 20 21 22 23 24 25 26 27 28
224
FTUS43 KLSX 011943 AAA
TAFSTL
TAF AMD
KSTL 011943Z 0120/0224 26012KT P6SM SCT025 BKN040
     FM020100 32008KT P6SM SCT020 BKN120
     FM020800 33007KT 6SM BR BKN009 OVC015
     FM021600 35007KT P6SM VCSH BKN015 OVC040=

USA.gov is the U.S. government's official web portal to all federal, state and local government web resources and services.